Time;durP1;ratioP1;P1;durP2;ratioP2;P2;SDS_P1;SDS_P2;PMS_P1;PMS_P2;Temp;Humidity;BMP_temperature;BMP_pressure;BME280_temperature;BME280_humidity;BME280_pressure;Samples;Min_cycle;Max_cycle;Signal;HPM_P1;HPM_P2
2023/02/21 02:14:16;;;;;;;2.00;1.13;;;;;;;9.29;100.00;101324.69;4987543;28;20188;-70
2023/02/21 02:16:48;;;;;;;2.57;1.60;;;;;;;9.29;100.00;101323.78;4988962;28;20195;-70
2023/02/21 02:19:28;;;;;;;3.10;1.50;;;;;;;9.28;100.00;101322.94;4983190;28;20208;-70
2023/02/21 02:22:30;;;;;;;1.53;1.23;;;;;;;9.26;100.00;101322.00;4986980;28;20299;-70
2023/02/21 02:25:18;;;;;;;2.63;1.60;;;;;;;9.28;100.00;101322.94;4982529;28;20206;-70
2023/02/21 02:28:02;;;;;;;1.53;1.43;;;;;;;9.27;100.00;101323.75;4983172;28;20188;-71
2023/02/21 02:30:39;;;;;;;1.73;1.40;;;;;;;9.25;100.00;101317.72;4986319;28;20588;-70
2023/02/21 02:33:51;;;;;;;2.87;2.00;;;;;;;9.26;100.00;101313.50;4977819;28;20251;-69
2023/02/21 02:36:26;;;;;;;2.47;1.63;;;;;;;9.24;100.00;101317.66;4984459;28;20699;-68
2023/02/21 02:39:29;;;;;;;2.50;1.70;;;;;;;9.22;100.00;101314.22;4984153;28;20261;-68
2023/02/21 02:42:10;;;;;;;2.77;1.40;;;;;;;9.22;100.00;101321.88;4985879;28;20216;-70
2023/02/21 02:44:48;;;;;;;1.67;1.47;;;;;;;9.21;100.00;101315.03;4989124;28;20254;-71
2023/02/21 02:47:32;;;;;;;1.80;1.40;;;;;;;9.19;100.00;101311.56;4963326;28;20695;-71
2023/02/21 02:50:00;;;;;;;1.67;1.13;;;;;;;9.19;100.00;101321.78;4986358;28;20653;-69
2023/02/21 02:52:26;;;;;;;2.57;1.30;;;;;;;9.18;100.00;101325.16;4986194;28;20219;-69
2023/02/21 02:55:00;;;;;;;2.13;1.17;;;;;;;9.16;100.00;101319.97;4974982;28;20222;-70
2023/02/21 02:57:37;;;;;;;1.20;1.10;;;;;;;9.16;100.00;101321.66;4965799;28;20227;-70
2023/02/21 03:00:04;;;;;;;2.07;1.30;;;;;;;9.15;100.00;101323.38;4983770;28;20194;-70
2023/02/21 03:02:44;;;;;;;2.43;1.40;;;;;;;9.14;100.00;101318.19;4975891;28;20259;-69
2023/02/21 03:05:42;;;;;;;2.50;1.40;;;;;;;9.13;100.00;101314.75;4981851;28;20318;-71
2023/02/21 03:08:52;;;;;;;2.37;1.83;;;;;;;9.15;100.00;101323.38;4982393;28;20235;-71
2023/02/21 03:11:22;;;;;;;1.90;1.70;;;;;;;9.11;100.00;101316.41;4980415;28;20226;-70
2023/02/21 03:13:58;;;;;;;2.93;1.60;;;;;;;9.11;100.00;101311.31;4976808;28;20195;-70
2023/02/21 03:16:35;;;;;;;1.10;1.00;;;;;;;9.10;100.00;101312.13;4978760;28;20196;-70
2023/02/21 03:19:11;;;;;;;2.17;0.63;;;;;;;9.09;100.00;101310.41;4983404;28;20266;-69
2023/02/21 03:21:53;;;;;;;1.83;0.80;;;;;;;9.09;100.00;101310.41;4981540;28;20319;-70
2023/02/21 03:24:21;;;;;;;2.20;0.83;;;;;;;9.09;100.00;101307.84;4979285;28;20573;-68
2023/02/21 03:26:52;;;;;;;1.37;0.73;;;;;;;9.08;100.00;101305.22;4984444;28;20202;-67
2023/02/21 03:29:59;;;;;;;0.77;0.60;;;;;;;9.08;100.00;101313.75;5000777;28;20215;-67
2023/02/21 03:34:59;;;;;;;2.47;0.93;;;;;;;9.05;100.00;101317.91;4988712;28;20297;-68
2023/02/21 03:37:38;;;;;;;2.10;0.80;;;;;;;9.05;100.00;101312.78;4982195;28;20220;-70
2023/02/21 03:40:27;;;;;;;1.20;0.80;;;;;;;9.04;100.00;101324.69;4985963;28;20224;-70
2023/02/21 03:42:56;;;;;;;1.10;0.90;;;;;;;9.03;100.00;101329.75;4984711;28;20206;-69
2023/02/21 03:45:23;;;;;;;2.07;1.30;;;;;;;9.02;100.00;101328.00;4968412;28;20196;-69
2023/02/21 03:48:07;;;;;;;2.30;1.23;;;;;;;9.02;100.00;101323.78;4987121;28;20184;-71
2023/02/21 03:50:34;;;;;;;3.50;1.67;;;;;;;9.01;100.00;101326.28;4980920;28;20712;-69
2023/02/21 03:53:00;;;;;;;1.70;1.13;;;;;;;9.01;100.00;101324.59;4980094;28;20223;-69
2023/02/21 03:55:26;;;;;;;1.20;1.10;;;;;;;9.00;100.00;101332.19;4977807;28;20224;-71
2023/02/21 03:57:52;;;;;;;1.87;1.30;;;;;;;8.99;100.00;101320.25;4982602;28;20230;-70
2023/02/21 04:00:18;;;;;;;1.33;1.00;;;;;;;8.97;100.00;101326.97;4982042;28;20190;-70
2023/02/21 04:02:48;;;;;;;1.53;1.43;;;;;;;8.95;100.00;101326.97;4976899;28;20660;-71
2023/02/21 04:05:23;;;;;;;2.77;1.77;;;;;;;8.95;100.00;101319.28;4978177;28;20192;-69
2023/02/21 04:07:49;;;;;;;3.03;1.57;;;;;;;8.95;100.00;101323.53;4979475;28;20238;-70
2023/02/21 04:10:15;;;;;;;3.37;1.70;;;;;;;8.95;100.00;101326.06;4976111;28;20271;-70
2023/02/21 04:12:43;;;;;;;2.60;1.93;;;;;;;8.93;100.00;101322.59;4981334;28;20195;-70
2023/02/21 04:15:10;;;;;;;2.23;1.50;;;;;;;8.92;100.00;101331.06;4985307;28;20278;-69
2023/02/21 04:17:35;;;;;;;5.20;2.30;;;;;;;8.91;100.00;101335.34;4981915;28;20319;-71
2023/02/21 04:20:03;;;;;;;3.10;1.80;;;;;;;8.92;100.00;101333.63;4978311;28;20206;-70
2023/02/21 04:22:31;;;;;;;4.07;1.90;;;;;;;8.91;100.00;101337.00;4981684;28;20748;-70
2023/02/21 04:24:57;;;;;;;2.60;1.80;;;;;;;8.89;100.00;101339.50;4977722;28;20271;-68
2023/02/21 04:27:23;;;;;;;2.60;2.00;;;;;;;8.89;100.00;101334.38;4985736;28;20322;-70
2023/02/21 04:29:53;;;;;;;2.33;1.83;;;;;;;8.87;100.00;101338.59;4984112;28;20203;-69
2023/02/21 04:32:18;;;;;;;2.93;1.73;;;;;;;8.87;100.00;101340.25;4983500;28;20208;-71
2023/02/21 04:34:44;;;;;;;3.23;1.73;;;;;;;8.87;100.00;101337.72;4985283;28;20199;-70
2023/02/21 04:37:10;;;;;;;2.57;2.33;;;;;;;8.86;100.00;101326.66;4985343;28;20191;-70
2023/02/21 04:39:36;;;;;;;3.37;2.30;;;;;;;8.85;100.00;101335.09;4980493;28;20200;-70
2023/02/21 04:42:01;;;;;;;3.10;1.70;;;;;;;8.84;100.00;101330.81;4983430;28;20208;-68
2023/02/21 04:44:28;;;;;;;3.63;1.83;;;;;;;8.82;100.00;101331.59;4977504;28;20676;-70
2023/02/21 04:46:54;;;;;;;3.70;2.00;;;;;;;8.81;100.00;101335.81;4982587;28;20192;-68
2023/02/21 04:49:19;;;;;;;4.33;1.80;;;;;;;8.81;100.00;101332.41;4978884;28;20192;-70
2023/02/21 04:51:44;;;;;;;1.73;1.63;;;;;;;8.80;100.00;101334.06;4986038;28;20227;-70
2023/02/21 04:54:10;;;;;;;3.23;1.97;;;;;;;8.80;100.00;101333.22;4986130;28;20192;-69
2023/02/21 04:56:36;;;;;;;3.17;1.77;;;;;;;8.80;100.00;101340.88;4998887;28;20199;-70
2023/02/21 04:59:02;;;;;;;3.17;2.10;;;;;;;8.78;100.00;101333.19;4980039;28;20905;-70
2023/02/21 05:01:29;;;;;;;3.60;2.03;;;;;;;8.79;100.00;101332.34;4972242;28;20306;-71
2023/02/21 05:03:56;;;;;;;4.83;2.30;;;;;;;8.78;100.00;101332.28;4986571;28;20271;-70
2023/02/21 05:06:24;;;;;;;4.17;2.60;;;;;;;8.77;100.00;101335.66;4988600;28;20246;-70
2023/02/21 05:08:49;;;;;;;3.00;2.17;;;;;;;8.77;100.00;101339.09;4985430;28;20243;-70
2023/02/21 05:11:16;;;;;;;3.10;2.07;;;;;;;8.76;100.00;101339.03;4985966;28;20220;-68
2023/02/21 05:13:42;;;;;;;4.07;2.30;;;;;;;8.74;100.00;101341.53;4985721;28;20203;-70
2023/02/21 05:16:07;;;;;;;3.20;2.37;;;;;;;8.73;100.00;101347.47;4986478;28;20207;-69
2023/02/21 05:18:33;;;;;;;4.17;2.57;;;;;;;8.72;100.00;101345.75;4986860;28;20220;-70
2023/02/21 05:20:59;;;;;;;4.77;2.57;;;;;;;8.72;100.00;101338.06;4987952;28;20227;-70
2023/02/21 05:23:33;;;;;;;2.90;2.47;;;;;;;8.70;100.00;101349.91;4985817;28;20251;-70
2023/02/21 05:26:00;;;;;;;2.93;2.57;;;;;;;8.69;100.00;101344.75;4982917;28;20206;-69
2023/02/21 05:28:27;;;;;;;3.80;2.47;;;;;;;8.70;100.00;101352.47;4972030;28;20192;-70
2023/02/21 05:30:53;;;;;;;4.40;3.30;;;;;;;8.68;100.00;101351.53;4983447;28;20719;-70
2023/02/21 05:33:18;;;;;;;5.67;3.90;;;;;;;8.66;100.00;101345.50;4984388;28;20227;-70
2023/02/21 05:35:46;;;;;;;7.43;4.90;;;;;;;8.65;100.00;101345.44;4980384;28;20198;-68
2023/02/21 05:38:12;;;;;;;5.57;4.63;;;;;;;8.65;100.00;101348.00;4984327;28;20294;-70
2023/02/21 05:40:38;;;;;;;7.83;3.80;;;;;;;8.61;100.00;101351.28;4984287;28;20233;-71
2023/02/21 05:43:03;;;;;;;6.20;2.33;;;;;;;8.56;100.00;101343.44;4982804;28;20192;-71
2023/02/21 05:45:29;;;;;;;4.77;2.30;;;;;;;8.56;100.00;101356.22;4982488;28;20271;-70
2023/02/21 05:47:58;;;;;;;8.40;2.47;;;;;;;8.55;100.00;101354.47;4984838;28;20210;-70
2023/02/21 05:50:25;;;;;;;8.73;2.60;;;;;;;8.54;100.00;101359.53;4978165;28;20212;-70
2023/02/21 05:52:50;;;;;;;8.40;2.00;;;;;;;8.52;100.00;101368.81;4983811;28;20808;-70
2023/02/21 05:55:16;;;;;;;14.27;2.63;;;;;;;8.49;100.00;101366.16;4981539;28;20203;-70
2023/02/21 05:57:41;;;;;;;9.67;1.93;;;;;;;8.50;100.00;101365.31;4979748;28;20208;-69
2023/02/21 06:00:14;;;;;;;9.40;2.87;;;;;;;8.47;100.00;101365.25;4977945;28;20193;-70
2023/02/21 06:02:39;;;;;;;10.20;2.77;;;;;;;8.47;100.00;101362.69;4983876;28;20203;-69
2023/02/21 06:05:05;;;;;;;12.23;2.60;;;;;;;8.42;100.00;101371.81;4978631;28;20200;-70
2023/02/21 06:07:30;;;;;;;8.80;2.97;;;;;;;8.41;100.00;101365.00;4979664;28;20193;-68
2023/02/21 06:09:56;;;;;;;18.70;2.97;;;;;;;8.41;100.00;101370.09;4971502;28;20234;-70
2023/02/21 06:12:21;;;;;;;11.60;2.17;;;;;;;8.38;100.00;101373.41;4959212;28;20221;-69
2023/02/21 06:14:47;;;;;;;11.50;2.53;;;;;;;8.39;100.00;101381.94;4961383;28;20205;-69
2023/02/21 06:17:12;;;;;;;12.63;2.60;;;;;;;8.39;100.00;101384.50;4961791;28;20200;-69
2023/02/21 06:19:38;;;;;;;11.47;2.47;;;;;;;8.38;100.00;101388.72;4959605;28;20259;-70
2023/02/21 06:22:03;;;;;;;14.83;3.00;;;;;;;8.35;100.00;101396.28;4958598;28;20216;-69
2023/02/21 06:24:28;;;;;;;16.40;2.90;;;;;;;8.37;100.00;101393.75;4959488;28;20235;-69
2023/02/21 06:26:54;;;;;;;12.33;2.57;;;;;;;8.33;100.00;101402.09;4959351;28;20188;-71
2023/02/21 06:29:19;;;;;;;14.83;2.67;;;;;;;8.35;100.00;101410.72;4961302;28;20726;-69
2023/02/21 06:31:45;;;;;;;15.27;2.83;;;;;;;8.33;100.00;101409.75;4959619;28;20212;-70
2023/02/21 06:34:11;;;;;;;18.43;2.83;;;;;;;8.30;100.00;101420.72;4962806;28;20747;-70
2023/02/21 06:36:38;;;;;;;16.47;2.87;;;;;;;8.26;100.00;101426.56;4958878;28;20197;-70
2023/02/21 06:39:04;;;;;;;13.70;2.50;;;;;;;8.26;100.00;101423.13;4962454;28;20308;-70
2023/02/21 06:41:30;;;;;;;15.43;2.83;;;;;;;8.26;100.00;101429.09;4958108;28;20744;-68
2023/02/21 06:43:58;;;;;;;15.97;3.10;;;;;;;8.26;100.00;101438.44;4962545;28;20192;-70
2023/02/21 06:46:26;;;;;;;20.70;3.23;;;;;;;8.26;100.00;101443.53;4958916;28;20284;-67
2023/02/21 06:48:52;;;;;;;13.13;2.93;;;;;;;8.26;100.00;101446.06;4964459;28;20200;-69
2023/02/21 06:51:18;;;;;;;14.93;3.23;;;;;;;8.24;100.00;101440.06;4956197;28;20209;-69
2023/02/21 06:53:48;;;;;;;13.73;2.97;;;;;;;8.24;100.00;101440.91;4957098;28;20742;-70
2023/02/21 06:56:13;;;;;;;20.43;3.63;;;;;;;8.23;100.00;101443.41;4958142;28;20197;-70
2023/02/21 06:58:38;;;;;;;17.40;3.93;;;;;;;8.22;100.00;101444.22;4968335;28;20262;-70
2023/02/21 07:01:04;;;;;;;17.47;3.00;;;;;;;8.22;100.00;101445.09;4957956;28;20217;-68
2023/02/21 07:03:29;;;;;;;19.13;3.37;;;;;;;8.20;100.00;101439.06;4963289;28;20196;-69
2023/02/21 07:05:55;;;;;;;17.77;3.20;;;;;;;8.21;100.00;101443.34;4963581;28;20239;-69
2023/02/21 07:08:21;;;;;;;20.03;3.53;;;;;;;8.21;100.00;101448.44;4965713;28;20314;-68
2023/02/21 07:10:46;;;;;;;18.07;3.73;;;;;;;8.22;100.00;101449.31;4960491;28;20258;-69
2023/02/21 07:13:12;;;;;;;16.17;3.13;;;;;;;8.22;100.00;101451.88;4962485;28;20205;-69
2023/02/21 07:15:37;;;;;;;20.13;3.53;;;;;;;8.24;100.00;101458.78;4960507;28;20196;-69
2023/02/21 07:18:03;;;;;;;21.73;3.80;;;;;;;8.26;100.00;101459.72;4960329;28;20235;-68
2023/02/21 07:20:29;;;;;;;19.40;2.93;;;;;;;8.30;100.00;101470.91;4959457;28;20213;-69
2023/02/21 07:22:55;;;;;;;12.30;2.60;;;;;;;8.31;100.00;101462.44;4962091;28;20215;-68
2023/02/21 07:25:21;;;;;;;16.37;3.37;;;;;;;8.30;100.00;101464.09;4959029;28;20197;-69
2023/02/21 07:27:47;;;;;;;19.70;3.20;;;;;;;8.31;100.00;101476.06;4963601;28;20641;-70
2023/02/21 07:30:14;;;;;;;19.70;3.60;;;;;;;8.34;100.00;101473.59;4961579;28;20234;-70
2023/02/21 07:32:39;;;;;;;21.50;3.13;;;;;;;8.36;100.00;101473.66;4961543;28;20825;-68
2023/02/21 07:35:05;;;;;;;15.27;3.23;;;;;;;8.37;100.00;101478.84;4964565;28;20319;-70
2023/02/21 07:37:31;;;;;;;17.77;3.33;;;;;;;8.39;100.00;101481.47;4961539;28;20222;-69
2023/02/21 07:39:56;;;;;;;16.57;2.70;;;;;;;8.40;100.00;101478.97;4965330;28;20192;-70
2023/02/21 07:42:22;;;;;;;15.60;2.80;;;;;;;8.44;100.00;101485.06;4960134;28;20209;-68
2023/02/21 07:44:47;;;;;;;17.43;4.37;;;;;;;8.44;100.00;101483.34;4962696;28;20893;-70
2023/02/21 07:47:13;;;;;;;16.23;3.57;;;;;;;8.48;100.00;101480.09;4960370;28;20192;-70
2023/02/21 07:49:39;;;;;;;16.63;3.47;;;;;;;8.52;100.00;101474.31;4962868;28;20646;-69
2023/02/21 07:52:06;;;;;;;14.80;2.97;;;;;;;8.54;100.00;101495.66;4962607;28;20236;-69
2023/02/21 07:54:31;;;;;;;21.33;3.77;;;;;;;8.57;100.00;101484.72;4963600;28;20193;-70
2023/02/21 07:56:57;;;;;;;18.47;3.80;;;;;;;8.61;100.00;101492.53;4964811;28;20761;-69
2023/02/21 07:59:23;;;;;;;15.20;2.93;;;;;;;8.65;100.00;101488.38;4960090;28;20288;-68
2023/02/21 08:01:48;;;;;;;12.60;2.97;;;;;;;8.70;100.00;101503.06;4959705;28;20224;-70
2023/02/21 08:04:14;;;;;;;15.10;3.77;;;;;;;8.72;100.00;101501.47;4962485;28;20229;-70
2023/02/21 08:06:39;;;;;;;19.93;3.67;;;;;;;8.78;100.00;101493.13;4963745;28;20271;-68
2023/02/21 08:09:08;;;;;;;14.97;3.33;;;;;;;8.92;100.00;101503.06;4966573;28;20291;-68
2023/02/21 08:11:35;;;;;;;16.03;3.50;;;;;;;9.15;100.00;101502.19;4962817;28;20232;-69
2023/02/21 08:14:01;;;;;;;15.60;2.60;;;;;;;9.47;100.00;101501.63;4965289;28;20258;-69
2023/02/21 08:16:27;;;;;;;11.70;2.53;;;;;;;9.66;100.00;101508.22;4959394;28;20874;-69
2023/02/21 08:18:52;;;;;;;15.37;3.53;;;;;;;9.88;100.00;101506.44;4961869;28;20701;-69
2023/02/21 08:21:18;;;;;;;13.73;3.47;;;;;;;10.11;100.00;101514.88;4957485;28;20586;-69
2023/02/21 08:23:43;;;;;;;11.20;2.77;;;;;;;10.13;100.00;101508.97;4963806;28;20662;-71
2023/02/21 08:26:08;;;;;;;14.60;3.50;;;;;;;10.27;100.00;101517.97;4961142;28;20240;-70
2023/02/21 08:28:36;;;;;;;15.50;3.40;;;;;;;10.24;100.00;101517.88;4944950;28;20203;-69
2023/02/21 08:31:01;;;;;;;16.27;3.10;;;;;;;10.15;100.00;101527.84;4956973;28;20311;-68
2023/02/21 08:33:27;;;;;;;17.17;3.80;;;;;;;10.24;100.00;101523.00;4958612;28;20890;-69
2023/02/21 08:35:53;;;;;;;14.30;3.57;;;;;;;10.28;100.00;101522.25;4962340;28;20252;-68
2023/02/21 08:38:18;;;;;;;16.63;3.07;;;;;;;10.39;100.00;101530.28;4982970;28;20218;-69
2023/02/21 08:40:44;;;;;;;14.87;3.67;;;;;;;10.58;100.00;101524.88;4983217;28;20596;-69
2023/02/21 08:43:10;;;;;;;14.77;3.33;;;;;;;10.48;100.00;101528.00;4980577;28;20188;-69
2023/02/21 08:45:35;;;;;;;14.33;3.20;;;;;;;10.35;100.00;101531.00;4983631;28;20229;-68
2023/02/21 08:48:01;;;;;;;17.00;3.37;;;;;;;10.18;100.00;101527.06;4974130;28;20238;-69
2023/02/21 08:50:27;;;;;;;14.87;3.20;;;;;;;10.14;100.00;101531.19;4985565;28;20226;-68
2023/02/21 08:52:53;;;;;;;12.20;2.73;;;;;;;10.15;100.00;101525.28;4985260;28;20214;-69
2023/02/21 08:55:20;;;;;;;13.00;3.03;;;;;;;10.19;100.00;101536.47;4983701;28;20565;-69
2023/02/21 08:57:50;;;;;;;14.67;2.90;;;;;;;10.14;100.00;101543.13;4981233;28;20244;-69
2023/02/21 09:00:17;;;;;;;14.53;3.53;;;;;;;9.95;100.00;101544.19;4981570;28;20207;-68
2023/02/21 09:02:43;;;;;;;15.00;3.60;;;;;;;10.04;100.00;101546.19;4984929;28;20208;-68
2023/02/21 09:05:19;;;;;;;15.50;3.50;;;;;;;10.06;100.00;101552.25;4981343;28;20228;-69
2023/02/21 09:07:48;;;;;;;14.10;3.30;;;;;;;10.14;100.00;101551.66;4973431;28;20298;-67
2023/02/21 09:10:14;;;;;;;15.97;3.03;;;;;;;10.14;100.00;101546.53;4979190;28;20679;-68
2023/02/21 09:12:39;;;;;;;12.90;3.10;;;;;;;10.23;100.00;101549.41;4988712;28;20195;-69
2023/02/21 09:15:06;;;;;;;14.80;3.37;;;;;;;10.36;100.00;101548.97;4983423;28;20197;-67
2023/02/21 09:17:32;;;;;;;12.20;3.37;;;;;;;10.26;100.00;101552.06;4987686;28;20307;-67
2023/02/21 09:20:06;;;;;;;16.43;2.87;;;;;;;10.24;100.00;101546.03;4981826;28;20195;-66
2023/02/21 09:22:32;;;;;;;20.03;3.53;;;;;;;10.24;100.00;101558.84;4988322;28;20207;-68
2023/02/21 09:24:59;;;;;;;16.37;3.33;;;;;;;10.20;100.00;101556.13;4983253;28;20196;-68
2023/02/21 09:27:35;;;;;;;12.17;2.93;;;;;;;10.11;100.00;101551.59;4987629;28;20195;-69
2023/02/21 09:30:18;;;;;;;14.63;3.33;;;;;;;10.10;100.00;101566.88;4983048;28;20584;-68
2023/02/21 09:32:43;;;;;;;16.43;3.60;;;;;;;10.13;100.00;101572.09;4990222;28;20849;-69
2023/02/21 09:35:12;;;;;;;12.67;3.33;;;;;;;10.11;100.00;101569.50;4970438;28;20314;-69
2023/02/21 09:37:39;;;;;;;14.23;2.90;;;;;;;10.17;100.00;101571.34;4988382;28;20231;-68
2023/02/21 09:40:23;;;;;;;14.63;3.23;;;;;;;10.19;100.00;101579.97;4982584;28;20193;-69
2023/02/21 09:42:55;;;;;;;8.53;2.97;;;;;;;10.13;100.00;101582.34;4987051;28;20195;-68
2023/02/21 09:45:23;;;;;;;16.67;3.10;;;;;;;10.17;100.00;101587.59;4983025;28;20253;-69
2023/02/21 09:47:53;;;;;;;13.63;3.00;;;;;;;10.16;100.00;101596.09;4979813;28;20188;-69
2023/02/21 09:50:26;;;;;;;14.50;3.40;;;;;;;10.17;100.00;101590.16;4981587;28;20253;-68
2023/02/21 09:52:57;;;;;;;18.13;3.30;;;;;;;10.15;100.00;101591.81;4977227;28;20242;-69
2023/02/21 09:55:27;;;;;;;10.87;2.73;;;;;;;10.15;100.00;101599.50;4984912;28;20207;-69
2023/02/21 09:57:54;;;;;;;12.37;2.70;;;;;;;10.12;100.00;101601.94;4986521;28;20338;-69
2023/02/21 10:00:23;;;;;;;24.43;3.57;;;;;;;10.19;100.00;101603.00;4984591;28;20200;-69
2023/02/21 10:03:13;;;;;;;17.27;3.57;;;;;;;10.30;100.00;101599.09;4984543;28;20207;-69
2023/02/21 10:05:52;;;;;;;14.37;2.83;;;;;;;10.34;100.00;101603.50;4980121;28;21452;-69
2023/02/21 10:08:52;;;;;;;11.43;3.00;;;;;;;10.33;100.00;101609.44;4980633;28;20212;-68
2023/02/21 10:11:35;;;;;;;11.90;2.60;;;;;;;10.29;100.00;101602.47;4987694;28;20551;-68
2023/02/21 10:14:38;;;;;;;16.97;3.67;;;;;;;10.44;100.00;101602.97;4983098;28;20204;-69
2023/02/21 10:17:10;;;;;;;12.23;3.00;;;;;;;10.52;100.00;101606.66;4996106;28;20283;-70
2023/02/21 10:19:42;;;;;;;15.93;3.43;;;;;;;10.61;100.00;101612.06;4984182;28;20305;-68
2023/02/21 10:22:24;;;;;;;10.77;2.73;;;;;;;10.73;100.00;101600.50;4986260;28;20300;-68
2023/02/21 10:24:50;;;;;;;13.17;3.87;;;;;;;10.94;100.00;101610.53;4975554;28;20218;-69
2023/02/21 10:27:26;;;;;;;13.63;3.37;;;;;;;10.84;100.00;101604.28;4984252;28;20235;-67
2023/02/21 10:30:04;;;;;;;11.07;2.77;;;;;;;10.71;100.00;101599.59;4984163;28;20195;-69
2023/02/21 10:32:30;;;;;;;14.83;3.57;;;;;;;10.87;100.00;101601.78;4999001;28;20216;-69
2023/02/21 10:34:57;;;;;;;12.90;2.93;;;;;;;11.11;100.00;101605.06;4972781;28;20454;-65
2023/02/21 10:37:22;;;;;;;14.23;3.50;;;;;;;11.71;100.00;101601.69;4984228;28;20615;-67
2023/02/21 10:39:57;;;;;;;13.30;3.40;;;;;;;11.65;100.00;101596.41;4985327;28;20200;-68
2023/02/21 10:42:53;;;;;;;17.83;3.10;;;;;;;12.85;100.00;101606.25;4986523;28;20218;-67
2023/02/21 10:45:26;;;;;;;13.10;2.60;;;;;;;14.10;100.00;101590.78;4982190;28;20192;-66
2023/02/21 10:48:01;;;;;;;14.17;3.43;;;;;;;13.76;100.00;101593.63;4978696;28;20673;-68
2023/02/21 10:50:50;;;;;;;16.70;3.73;;;;;;;13.83;100.00;101600.59;4985219;28;20211;-70
2023/02/21 10:53:31;;;;;;;15.23;2.73;;;;;;;13.82;100.00;101606.59;4988671;28;20200;-68
2023/02/21 10:56:15;;;;;;;12.90;3.70;;;;;;;13.77;100.00;101606.50;4980218;28;20199;-68
2023/02/21 10:59:04;;;;;;;14.57;3.83;;;;;;;14.20;100.00;101610.69;4991855;28;20282;-68
2023/02/21 11:01:34;;;;;;;13.33;3.60;;;;;;;14.82;100.00;101605.72;4987454;28;20716;-68
2023/02/21 11:04:21;;;;;;;15.93;3.63;;;;;;;13.69;100.00;101614.91;4986565;28;20191;-69
2023/02/21 11:06:53;;;;;;;16.70;3.20;;;;;;;13.01;100.00;101617.78;4984086;28;20208;-68
2023/02/21 11:09:29;;;;;;;11.00;2.80;;;;;;;13.12;100.00;101611.19;4958004;28;20319;-68
2023/02/21 11:12:24;;;;;;;16.80;3.43;;;;;;;12.98;100.00;101612.59;4983238;28;20410;-69
2023/02/21 11:14:49;;;;;;;14.10;3.23;;;;;;;13.14;100.00;101604.34;4984248;28;20199;-68
2023/02/21 11:17:27;;;;;;;15.23;3.87;;;;;;;13.43;100.00;101611.84;4983771;28;20262;-69
2023/02/21 11:19:55;;;;;;;11.30;3.07;;;;;;;13.57;100.00;101615.56;4986238;28;20235;-68
2023/02/21 11:22:32;;;;;;;13.63;3.63;;;;;;;13.36;100.00;101615.13;4989099;28;20220;-69
2023/02/21 11:25:03;;;;;;;14.33;3.47;;;;;;;13.43;100.00;101614.41;4978091;28;20198;-68
2023/02/21 11:27:32;;;;;;;8.37;3.13;;;;;;;13.59;100.00;101613.00;4975841;28;20203;-68
2023/02/21 11:30:01;;;;;;;14.00;2.63;;;;;;;13.50;100.00;101621.44;4981901;28;20192;-69
2023/02/21 11:32:40;;;;;;;13.87;3.37;;;;;;;13.46;100.00;101611.91;4985186;28;20297;-66
2023/02/21 11:35:19;;;;;;;13.23;3.37;;;;;;;13.50;100.00;101608.56;4980175;28;20199;-66
2023/02/21 11:37:51;;;;;;;13.50;3.00;;;;;;;12.90;100.00;101610.66;4984818;28;20806;-66
2023/02/21 11:40:31;;;;;;;10.33;3.20;;;;;;;12.78;100.00;101607.84;4979871;28;20192;-67
2023/02/21 11:43:22;;;;;;;13.10;2.90;;;;;;;13.01;100.00;101610.94;4982248;28;20692;-67
2023/02/21 11:46:03;;;;;;;11.33;2.73;;;;;;;12.94;100.00;101606.44;4979615;28;20334;-65
2023/02/21 11:48:43;;;;;;;8.83;2.23;;;;;;;12.58;100.00;101610.78;4987337;28;20192;-66
2023/02/21 11:51:50;;;;;;;12.90;2.73;;;;;;;12.23;100.00;101611.63;4983152;28;20215;-66
2023/02/21 11:54:15;;;;;;;12.40;3.40;;;;;;;11.97;100.00;101602.38;4997060;28;20264;-66
2023/02/21 11:57:06;;;;;;;9.77;3.00;;;;;;;11.93;100.00;101608.28;4984624;28;20715;-66
2023/02/21 11:59:42;;;;;;;11.07;2.87;;;;;;;11.76;100.00;101612.94;4983692;28;20244;-66
2023/02/21 12:02:11;;;;;;;12.37;3.03;;;;;;;11.70;100.00;101606.81;4981906;28;20211;-68
2023/02/21 12:05:27;;;;;;;12.37;3.00;;;;;;;11.65;100.00;101601.53;4980125;28;20211;-66
2023/02/21 12:08:18;;;;;;;11.43;3.03;;;;;;;11.61;100.00;101604.84;4990510;28;20203;-66
2023/02/21 12:10:50;;;;;;;8.70;2.53;;;;;;;11.62;100.00;101605.72;4981540;28;20215;-66
2023/02/21 12:13:19;;;;;;;14.10;2.90;;;;;;;11.55;100.00;101604.66;4982762;28;20231;-66
2023/02/21 12:16:00;;;;;;;10.30;2.80;;;;;;;11.51;100.00;101601.94;4981303;28;20680;-67
2023/02/21 12:18:49;;;;;;;11.33;2.90;;;;;;;11.45;100.00;101605.22;4984780;28;20713;-66
2023/02/21 12:21:39;;;;;;;13.20;3.27;;;;;;;11.44;100.00;101603.50;4978423;28;20217;-67
2023/02/21 12:24:57;;;;;;;10.67;2.97;;;;;;;11.38;100.00;101603.31;4979650;28;20200;-67
2023/02/21 12:27:57;;;;;;;16.53;3.70;;;;;;;11.33;100.00;101604.88;4973450;28;20215;-67
2023/02/21 12:30:48;;;;;;;9.57;3.03;;;;;;;11.30;100.00;101603.91;4981863;28;20240;-70
2023/02/21 12:33:44;;;;;;;9.17;2.87;;;;;;;11.07;100.00;101604.94;4984340;28;20659;-68
2023/02/21 12:36:26;;;;;;;10.57;3.00;;;;;;;11.12;100.00;101604.28;4981357;28;20199;-69
2023/02/21 12:38:59;;;;;;;7.53;3.00;;;;;;;11.14;100.00;101601.72;4973730;28;20303;-67
2023/02/21 12:41:31;;;;;;;6.73;2.63;;;;;;;11.03;100.00;101601.44;4982691;28;20216;-69
2023/02/21 12:44:12;;;;;;;6.43;2.73;;;;;;;11.08;100.00;101601.56;4986262;28;20608;-68
2023/02/21 12:47:16;;;;;;;5.37;2.53;;;;;;;11.10;100.00;101594.81;4984192;28;20326;-69
2023/02/21 12:49:45;;;;;;;7.63;2.53;;;;;;;11.04;100.00;101598.03;4993756;28;20210;-69
2023/02/21 12:52:26;;;;;;;6.70;2.50;;;;;;;10.95;100.00;101602.00;4979998;28;20973;-67
2023/02/21 12:55:02;;;;;;;6.27;2.87;;;;;;;10.95;100.00;101602.00;4977780;28;20203;-68
2023/02/21 12:57:52;;;;;;;5.43;2.50;;;;;;;11.03;100.00;101601.44;4991818;28;20283;-68
2023/02/21 13:00:30;;;;;;;4.67;2.77;;;;;;;11.03;100.00;101596.31;4987902;28;20631;-68
2023/02/21 13:03:17;;;;;;;7.57;2.40;;;;;;;11.07;100.00;101597.25;4987647;28;20204;-68
2023/02/21 13:05:50;;;;;;;3.50;2.00;;;;;;;11.01;100.00;101602.22;4987673;28;20206;-69
2023/02/21 13:08:50;;;;;;;7.60;2.00;;;;;;;10.96;100.00;101594.38;4986664;28;20193;-68
2023/02/21 13:11:20;;;;;;;4.17;1.60;;;;;;;10.90;100.00;101601.00;4984432;28;20576;-64
2023/02/21 13:13:46;;;;;;;7.43;1.90;;;;;;;10.96;100.00;101603.78;4987931;28;20305;-66
2023/02/21 13:16:13;;;;;;;6.00;1.77;;;;;;;10.89;100.00;101596.72;4985949;28;20656;-67
2023/02/21 13:18:44;;;;;;;5.73;1.80;;;;;;;10.90;100.00;101598.44;4988700;28;20223;-68
2023/02/21 13:21:22;;;;;;;3.63;1.40;;;;;;;10.78;100.00;101593.81;4986051;28;20219;-68
2023/02/21 13:24:31;;;;;;;8.40;1.70;;;;;;;10.82;100.00;101595.66;4986266;28;20253;-69
2023/02/21 13:27:32;;;;;;;8.17;1.90;;;;;;;10.70;100.00;101594.41;4983604;28;20226;-69
2023/02/21 13:30:02;;;;;;;5.67;1.70;;;;;;;10.72;100.00;101596.22;4994248;28;20204;-69
2023/02/21 13:32:37;;;;;;;7.33;1.63;;;;;;;10.80;100.00;101586.19;4984535;28;20219;-68
2023/02/21 13:35:07;;;;;;;7.20;2.00;;;;;;;10.91;100.00;101589.94;4986698;28;20641;-67
2023/02/21 13:37:35;;;;;;;7.10;1.40;;;;;;;10.98;100.00;101592.75;4985188;28;20223;-68
2023/02/21 13:40:22;;;;;;;7.60;1.90;;;;;;;10.96;100.00;101596.09;4982353;28;20191;-67
2023/02/21 13:43:02;;;;;;;7.37;1.53;;;;;;;10.88;100.00;101595.84;4982729;28;20657;-67
2023/02/21 13:45:28;;;;;;;5.13;1.53;;;;;;;10.97;100.00;101590.97;4987612;28;20207;-68
2023/02/21 13:47:59;;;;;;;9.10;2.20;;;;;;;10.92;100.00;101586.56;4982928;28;20187;-68
2023/02/21 13:50:37;;;;;;;6.50;2.20;;;;;;;10.94;100.00;101585.78;4985596;28;20580;-67
2023/02/21 13:53:16;;;;;;;5.47;1.80;;;;;;;10.91;100.00;101580.56;4984987;28;20183;-68
2023/02/21 13:56:06;;;;;;;15.27;2.67;;;;;;;10.87;100.00;101590.69;4987292;28;20596;-68
2023/02/21 13:58:38;;;;;;;7.63;1.97;;;;;;;10.76;100.00;101585.25;4986083;28;20207;-68